Time;durP1;ratioP1;P1;durP2;ratioP2;P2;SDS_P1;SDS_P2;PMS_P1;PMS_P2;Temp;Humidity;BMP_temperature;BMP_pressure;BME280_temperature;BME280_humidity;BME280_pressure;Samples;Min_cycle;Max_cycle;Signal;HPM_P1;HPM_P2
2022/09/15 00:02:05;;;;;;;11.00;3.65;;;;;;;23.50;60.06;97510.75;4487350;32;20468;-78
2022/09/15 00:04:30;;;;;;;9.25;3.70;;;;;;;23.66;59.56;97500.72;4487334;32;20096;-77
2022/09/15 00:06:55;;;;;;;8.63;3.65;;;;;;;23.76;59.41;97495.81;4487437;32;20072;-77
2022/09/15 00:09:21;;;;;;;10.10;3.60;;;;;;;23.79;59.38;97482.00;4487278;32;20120;-78
2022/09/15 00:11:47;;;;;;;9.68;3.53;;;;;;;23.84;59.44;97441.91;4487583;32;20337;-78
2022/09/15 00:14:12;;;;;;;9.98;3.95;;;;;;;23.86;59.92;97452.47;4473322;32;20107;-78
2022/09/15 00:16:38;;;;;;;10.45;3.97;;;;;;;23.86;60.04;97447.91;4487289;32;20442;-78
2022/09/15 00:19:05;;;;;;;7.78;3.50;;;;;;;23.88;60.32;97435.06;4473295;32;20448;-78
2022/09/15 00:21:32;;;;;;;9.23;3.65;;;;;;;23.83;60.71;97461.72;4487305;32;20084;-78
2022/09/15 00:23:58;;;;;;;;;;;;;;;23.85;60.77;97486.56;4487686;32;20072;-78
2022/09/15 00:26:26;;;;;;;9.57;3.67;;;;;;;23.96;60.63;97509.37;4487377;32;20274;-78
2022/09/15 00:28:51;;;;;;;;;;;;;;;23.94;60.88;97488.06;4487737;32;20172;-78
2022/09/15 00:31:19;;;;;;;8.70;3.60;;;;;;;23.96;60.85;97487.03;4487416;32;19976;-78
2022/09/15 00:33:47;;;;;;;10.38;3.92;;;;;;;23.83;61.12;97498.56;4473065;32;20145;-78
2022/09/15 00:36:13;;;;;;;9.05;3.67;;;;;;;23.33;62.74;97520.16;4487346;32;20076;-78
2022/09/15 00:38:39;;;;;;;10.23;3.45;;;;;;;23.39;62.50;97521.22;4460202;32;20519;-78
2022/09/15 00:41:05;;;;;;;12.32;3.80;;;;;;;23.29;62.24;97530.47;4486536;32;20083;-78
2022/09/15 00:43:58;;;;;;;8.23;3.22;;;;;;;22.97;63.37;97548.78;4473208;32;20076;-78
2022/09/15 00:46:35;;;;;;;8.80;3.10;;;;;;;23.07;63.02;97564.59;4479594;32;20103;-77
2022/09/15 00:49:27;;;;;;;10.15;3.83;;;;;;;23.05;63.36;97561.28;4487612;32;20486;-77
2022/09/15 00:52:06;;;;;;;8.63;3.53;;;;;;;22.93;63.89;97552.88;4473018;32;20512;-77
2022/09/15 00:55:07;;;;;;;8.38;3.40;;;;;;;22.87;64.13;97567.09;4473000;32;20092;-77
2022/09/15 00:57:38;;;;;;;9.63;4.05;;;;;;;22.62;65.37;97565.78;4422903;32;20102;-77
2022/09/15 01:00:08;;;;;;;10.50;4.72;;;;;;;22.52;66.04;97566.94;4422777;32;20123;-77
2022/09/15 01:02:35;;;;;;;10.68;4.72;;;;;;;22.31;66.93;97564.19;4410154;32;20101;-77
2022/09/15 01:05:03;;;;;;;11.45;5.10;;;;;;;21.92;69.08;97554.59;4422655;32;20085;-78
2022/09/15 01:07:54;;;;;;;11.10;4.20;;;;;;;21.86;69.28;97548.13;4422754;32;20132;-78
2022/09/15 01:10:24;;;;;;;10.32;4.78;;;;;;;22.08;68.67;97562.47;4422454;32;20121;-78
2022/09/15 01:12:52;;;;;;;9.75;3.90;;;;;;;22.07;68.68;97576.06;4422914;32;20482;-78
2022/09/15 01:15:17;;;;;;;9.32;4.22;;;;;;;21.78;69.84;97570.50;4409914;32;20346;-78
2022/09/15 01:18:15;;;;;;;9.77;4.22;;;;;;;22.03;68.86;97562.19;4409920;32;20137;-78
2022/09/15 01:20:55;;;;;;;10.43;4.50;;;;;;;22.18;67.87;97556.81;4422938;32;20277;-78
2022/09/15 01:23:23;;;;;;;10.82;4.10;;;;;;;22.39;67.33;97558.75;4422754;32;20121;-78
2022/09/15 01:26:07;;;;;;;8.50;3.83;;;;;;;22.05;68.19;97557.47;4422713;32;20109;-78
2022/09/15 01:28:41;;;;;;;10.93;3.62;;;;;;;21.95;69.05;97559.59;4422770;32;20149;-78
2022/09/15 01:31:28;;;;;;;10.70;3.72;;;;;;;22.21;68.04;97566.31;4443216;32;20471;-78
2022/09/15 01:34:00;;;;;;;10.25;3.15;;;;;;;22.10;67.99;97551.56;4472750;32;20172;-78
2022/09/15 01:36:38;;;;;;;9.60;3.55;;;;;;;22.25;67.38;97556.91;4459671;32;20106;-78
2022/09/15 01:39:12;;;;;;;7.70;3.12;;;;;;;22.17;66.82;97563.19;4472702;32;20080;-78
2022/09/15 01:41:46;;;;;;;7.65;2.80;;;;;;;22.04;67.77;97558.50;4472485;32;20119;-78
2022/09/15 01:44:15;;;;;;;8.52;3.15;;;;;;;22.14;67.28;97556.34;4472680;32;20115;-77
2022/09/15 01:46:50;;;;;;;8.73;3.25;;;;;;;22.04;67.87;97560.31;4472538;32;20088;-78
2022/09/15 01:49:24;;;;;;;8.50;2.90;;;;;;;22.12;67.61;97569.13;4472509;32;20081;-77
2022/09/15 01:51:52;;;;;;;6.35;2.55;;;;;;;22.30;66.85;97570.59;4458684;32;20100;-77
2022/09/15 01:54:34;;;;;;;7.00;2.80;;;;;;;22.21;66.94;97560.94;4486297;32;20101;-77
2022/09/15 01:57:01;;;;;;;8.90;2.60;;;;;;;22.29;66.83;97564.41;4472404;32;20149;-77
2022/09/15 01:59:27;;;;;;;7.68;2.60;;;;;;;22.15;67.11;97566.03;4472428;32;20076;-77
2022/09/15 02:02:03;;;;;;;7.57;2.80;;;;;;;22.49;65.68;97571.84;4472531;32;20116;-77
2022/09/15 02:04:45;;;;;;;8.43;2.65;;;;;;;22.11;67.05;97566.59;4472258;32;20080;-78
2022/09/15 02:07:26;;;;;;;8.02;2.83;;;;;;;22.41;65.56;97564.75;4486755;32;20155;-77
2022/09/15 02:09:59;;;;;;;10.10;2.58;;;;;;;22.34;65.52;97570.03;4472221;32;20388;-78
2022/09/15 02:12:32;;;;;;;8.48;2.35;;;;;;;22.27;65.79;97570.97;4472214;32;20123;-77
2022/09/15 02:15:08;;;;;;;10.90;2.62;;;;;;;22.38;65.34;97570.47;4472326;32;20096;-77
2022/09/15 02:17:37;;;;;;;7.40;2.42;;;;;;;22.21;66.15;97571.69;4472376;32;20076;-77
2022/09/15 02:20:24;;;;;;;8.18;2.60;;;;;;;22.35;65.37;97576.25;4472179;32;20085;-77
2022/09/15 02:22:53;;;;;;;7.93;2.37;;;;;;;22.28;65.77;97573.47;4486283;32;20072;-77
2022/09/15 02:25:23;;;;;;;6.85;2.22;;;;;;;22.08;66.57;97578.56;4472191;32;20164;-77
2022/09/15 02:27:51;;;;;;;6.37;1.98;;;;;;;22.18;65.83;97579.09;4472146;32;20361;-77
2022/09/15 02:30:18;;;;;;;6.75;2.05;;;;;;;22.22;65.34;97562.63;4486335;32;20127;-77
2022/09/15 02:32:50;;;;;;;5.35;2.03;;;;;;;22.19;65.67;97567.34;4472101;32;20109;-78
2022/09/15 02:35:16;;;;;;;9.50;2.75;;;;;;;22.14;65.93;97566.25;4486322;32;20092;-77
2022/09/15 02:37:42;;;;;;;6.05;2.03;;;;;;;22.24;65.50;97569.47;4486129;32;20383;-78
2022/09/15 02:40:08;;;;;;;5.93;2.17;;;;;;;22.22;65.44;97582.22;4471903;32;20132;-77
2022/09/15 02:42:34;;;;;;;6.82;2.30;;;;;;;21.84;67.01;97593.06;4486145;32;20069;-77
2022/09/15 02:45:00;;;;;;;5.68;2.00;;;;;;;22.13;65.56;97570.75;4486041;32;20108;-77
2022/09/15 02:47:27;;;;;;;7.25;2.10;;;;;;;22.04;65.83;97574.59;4486057;32;20107;-77
2022/09/15 02:49:53;;;;;;;6.62;1.98;;;;;;;21.86;66.33;97577.63;4471836;32;20080;-78
2022/09/15 02:52:18;;;;;;;5.75;2.05;;;;;;;22.27;64.66;97574.50;4486025;32;20100;-77
2022/09/15 02:54:43;;;;;;;6.90;1.92;;;;;;;21.92;65.51;97578.75;4485865;32;20115;-77
2022/09/15 02:57:09;;;;;;;5.32;1.75;;;;;;;22.11;64.70;97577.34;4471521;32;20084;-76
2022/09/15 03:02:19;;;;;;;6.45;1.70;;;;;;;22.33;63.62;97579.09;4485827;32;20140;-76
2022/09/15 03:04:48;;;;;;;4.97;1.80;;;;;;;22.40;63.29;97579.16;4487032;32;20137;-77
2022/09/15 03:07:13;;;;;;;3.67;1.55;;;;;;;22.10;64.43;97579.19;4487936;32;20096;-76
2022/09/15 03:09:39;;;;;;;4.85;1.62;;;;;;;22.21;63.88;97571.69;4487913;32;20092;-76
2022/09/15 03:12:04;;;;;;;5.43;1.58;;;;;;;21.98;64.41;97578.00;4487817;32;20125;-78
2022/09/15 03:14:31;;;;;;;6.15;1.83;;;;;;;22.05;64.07;97570.03;4487930;32;20140;-77
2022/09/15 03:16:57;;;;;;;4.80;1.53;;;;;;;22.29;63.09;97576.97;4487812;32;20110;-78
2022/09/15 03:19:23;;;;;;;6.25;1.58;;;;;;;22.35;62.74;97581.59;4473635;32;20119;-78
2022/09/15 03:21:48;;;;;;;5.03;1.30;;;;;;;22.40;62.06;97576.47;4473433;32;20444;-77
2022/09/15 03:24:14;;;;;;;5.15;1.30;;;;;;;22.47;61.60;97572.03;4487885;32;20124;-77
2022/09/15 03:26:39;;;;;;;3.30;1.27;;;;;;;22.36;61.73;97572.53;4473467;32;20152;-77
2022/09/15 03:29:05;;;;;;;4.57;1.40;;;;;;;22.46;60.99;97566.84;4473372;32;20081;-77
2022/09/15 03:31:30;;;;;;;7.15;1.48;;;;;;;22.10;61.61;97567.66;4487709;32;20114;-76
2022/09/15 03:33:56;;;;;;;3.42;1.23;;;;;;;22.02;61.61;97570.41;4487737;32;20448;-76
2022/09/15 03:36:22;;;;;;;3.08;1.10;;;;;;;21.91;61.47;97575.22;4487752;32;20162;-77
2022/09/15 03:38:47;;;;;;;3.33;1.17;;;;;;;22.12;60.60;97566.44;4487739;32;20073;-76
2022/09/15 03:41:13;;;;;;;3.53;1.08;;;;;;;22.18;60.58;97570.22;4473179;32;20109;-76
2022/09/15 03:43:39;;;;;;;3.25;1.05;;;;;;;22.52;59.41;97561.56;4487637;32;20080;-76
2022/09/15 03:46:05;;;;;;;3.45;1.05;;;;;;;22.17;59.85;97565.84;4487641;32;20119;-76
2022/09/15 03:48:33;;;;;;;2.25;0.90;;;;;;;21.88;60.82;97577.44;4487623;32;20072;-78
2022/09/15 03:50:59;;;;;;;2.42;1.00;;;;;;;22.44;59.24;97563.53;4487563;32;20491;-78
2022/09/15 03:53:25;;;;;;;3.03;1.00;;;;;;;22.28;59.96;97575.31;4473161;32;20480;-77
2022/09/15 03:55:50;;;;;;;2.33;0.98;;;;;;;22.50;58.77;97560.94;4487637;32;20072;-78
2022/09/15 03:58:17;;;;;;;4.93;1.10;;;;;;;22.36;59.35;97565.28;4487418;32;20091;-78
2022/09/15 04:00:44;;;;;;;3.70;1.02;;;;;;;22.36;59.23;97572.53;4487674;32;20165;-78
2022/09/15 04:03:10;;;;;;;4.37;1.02;;;;;;;22.53;58.56;97571.28;4487878;32;20112;-78
2022/09/15 04:05:35;;;;;;;4.05;1.00;;;;;;;22.62;58.31;97569.31;4473207;32;20111;-77
2022/09/15 04:08:01;;;;;;;3.72;1.20;;;;;;;22.85;57.62;97574.50;4487750;32;20115;-76
2022/09/15 04:10:28;;;;;;;2.42;0.98;;;;;;;22.49;58.85;97575.34;4473485;32;20104;-77
2022/09/15 04:12:53;;;;;;;5.68;1.10;;;;;;;22.18;60.01;97580.94;4473307;32;20127;-77
2022/09/15 04:15:20;;;;;;;4.50;1.25;;;;;;;22.23;59.96;97583.88;4472210;32;20123;-78
2022/09/15 04:17:45;;;;;;;4.68;1.33;;;;;;;22.55;58.75;97579.97;4487439;32;20080;-78
2022/09/15 04:20:11;;;;;;;3.47;1.20;;;;;;;22.16;60.04;97588.34;4487385;32;20146;-77
2022/09/15 04:22:36;;;;;;;5.97;1.30;;;;;;;22.37;59.68;97582.25;4487387;32;20115;-78
2022/09/15 04:25:02;;;;;;;5.05;1.67;;;;;;;22.39;60.07;97588.25;4487330;32;20111;-78
2022/09/15 04:27:28;;;;;;;4.95;1.60;;;;;;;22.51;59.73;97584.03;4473146;32;20440;-78
2022/09/15 04:29:53;;;;;;;6.37;1.80;;;;;;;22.11;61.55;97580.84;4487292;32;20149;-78
2022/09/15 04:32:19;;;;;;;4.43;1.80;;;;;;;22.27;61.54;97581.69;4487437;32;20088;-78
2022/09/15 04:34:45;;;;;;;7.10;1.87;;;;;;;22.09;62.55;97590.94;4472984;32;20501;-78
2022/09/15 04:37:11;;;;;;;5.87;1.90;;;;;;;22.35;61.94;97598.53;4473085;32;20089;-78
2022/09/15 04:39:37;;;;;;;6.90;1.87;;;;;;;21.96;63.73;97618.41;4487311;32;20111;-78
2022/09/15 04:42:04;;;;;;;6.00;1.85;;;;;;;22.40;62.16;97600.63;4487417;32;20127;-78
2022/09/15 04:44:30;;;;;;;5.70;1.95;;;;;;;22.15;63.68;97602.75;4473000;32;20080;-78
2022/09/15 04:46:56;;;;;;;7.00;2.28;;;;;;;22.39;62.98;97590.94;4472989;32;20119;-77
2022/09/15 04:49:21;;;;;;;6.82;2.37;;;;;;;22.15;64.44;97589.34;4487279;32;20128;-77
2022/09/15 04:51:47;;;;;;;7.60;2.40;;;;;;;22.09;64.92;97585.56;4487367;32;20448;-77
2022/09/15 04:54:12;;;;;;;8.20;2.70;;;;;;;21.82;66.55;97591.59;4487258;32;20112;-77
2022/09/15 04:56:38;;;;;;;6.20;2.30;;;;;;;21.84;66.66;97587.69;4473057;32;20104;-77
2022/09/15 04:59:03;;;;;;;7.95;2.67;;;;;;;22.07;66.12;97578.72;4487238;32;20140;-77
2022/09/15 05:01:31;;;;;;;8.98;3.70;;;;;;;22.28;65.61;97581.50;4487001;32;20106;-77
2022/09/15 05:03:57;;;;;;;7.32;2.90;;;;;;;22.03;67.09;97580.97;4472820;32;20115;-77
2022/09/15 05:06:25;;;;;;;8.18;2.92;;;;;;;22.13;66.74;97569.94;4487158;32;20072;-77
2022/09/15 05:08:53;;;;;;;8.27;2.85;;;;;;;22.26;66.05;97570.13;4487244;32;20097;-78
2022/09/15 05:11:18;;;;;;;;;;;;;;;21.97;67.71;97587.88;4473352;32;20475;-77
2022/09/15 05:13:44;;;;;;;8.73;2.90;;;;;;;22.06;67.61;97585.97;4487239;32;19975;-77
2022/09/15 05:16:12;;;;;;;7.40;2.67;;;;;;;22.34;66.45;97596.03;4459816;32;20092;-78
2022/09/15 05:18:39;;;;;;;8.90;2.90;;;;;;;22.38;66.26;97594.63;4473149;32;20428;-78
2022/09/15 05:21:05;;;;;;;7.97;3.12;;;;;;;21.96;68.12;97610.38;4473001;32;20156;-78
2022/09/15 05:23:32;;;;;;;10.55;3.65;;;;;;;22.21;67.14;97610.06;4472798;32;20092;-78
2022/09/15 05:25:59;;;;;;;7.60;3.05;;;;;;;22.12;67.57;97624.63;4486965;32;20088;-78
2022/09/15 05:28:25;;;;;;;8.65;3.10;;;;;;;22.51;66.15;97631.53;4472383;32;20443;-78
2022/09/15 05:30:52;;;;;;;9.07;3.12;;;;;;;22.47;66.31;97622.19;4472775;32;20464;-78
2022/09/15 05:33:19;;;;;;;12.43;3.50;;;;;;;21.88;68.72;97620.34;4472759;32;20085;-79
2022/09/15 05:35:51;;;;;;;11.75;3.08;;;;;;;21.99;68.18;97631.44;4472697;32;20103;-78
2022/09/15 05:38:16;;;;;;;8.75;3.08;;;;;;;22.38;66.73;97637.56;4472874;32;20131;-78
2022/09/15 05:40:42;;;;;;;8.40;3.00;;;;;;;22.29;67.15;97642.22;4487145;32;20096;-78
2022/09/15 05:43:07;;;;;;;9.70;3.62;;;;;;;22.24;67.42;97633.03;4487067;32;20131;-77
2022/09/15 05:45:33;;;;;;;9.82;3.45;;;;;;;22.10;68.11;97624.78;4459809;32;20081;-78
2022/09/15 05:47:58;;;;;;;9.38;3.80;;;;;;;22.50;66.34;97627.16;4487028;32;20092;-77
2022/09/15 05:50:23;;;;;;;9.95;3.03;;;;;;;22.26;67.51;97653.31;4486887;32;20095;-77
2022/09/15 05:52:52;;;;;;;8.35;2.97;;;;;;;22.50;66.54;97644.13;4487093;32;20137;-78
2022/09/15 05:55:18;;;;;;;11.20;3.10;;;;;;;22.67;65.77;97650.09;4486971;32;20123;-78
2022/09/15 05:57:43;;;;;;;9.50;2.80;;;;;;;22.62;65.69;97644.47;4472755;32;20380;-78
2022/09/15 06:00:10;;;;;;;9.23;3.17;;;;;;;22.45;66.36;97635.78;4486768;32;20118;-77
2022/09/15 06:02:35;;;;;;;8.43;3.10;;;;;;;22.57;65.68;97630.78;4472655;32;20084;-78
2022/09/15 06:05:01;;;;;;;9.32;2.78;;;;;;;22.66;65.38;97628.81;4486836;32;20130;-78
2022/09/15 06:07:27;;;;;;;11.00;2.83;;;;;;;22.55;65.67;97636.31;4486952;32;20118;-78
2022/09/15 06:09:53;;;;;;;8.50;2.90;;;;;;;22.83;64.69;97637.47;4459191;32;20092;-78
2022/09/15 06:12:18;;;;;;;10.05;3.00;;;;;;;22.65;65.61;97643.25;4486699;32;20140;-79
2022/09/15 06:14:44;;;;;;;8.82;2.92;;;;;;;22.96;64.29;97645.66;4486610;32;20072;-79
2022/09/15 06:17:10;;;;;;;5.93;2.25;;;;;;;22.95;63.79;97639.47;4472407;32;20161;-78
2022/09/15 06:19:35;;;;;;;6.07;2.00;;;;;;;23.34;62.23;97640.91;4472182;32;20104;-78
2022/09/15 06:22:00;;;;;;;8.75;2.53;;;;;;;23.27;61.83;97636.50;4472143;32;20072;-78
2022/09/15 06:24:26;;;;;;;8.38;2.70;;;;;;;23.38;61.43;97644.03;4486337;32;20392;-78
2022/09/15 06:26:51;;;;;;;9.05;2.60;;;;;;;23.06;62.46;97654.25;4486418;32;20525;-77
2022/09/15 06:29:17;;;;;;;9.02;2.20;;;;;;;23.21;61.83;97654.22;4472102;32;20123;-81
2022/09/15 06:31:42;;;;;;;8.02;3.10;;;;;;;23.00;62.44;97662.22;4492780;31;20484;-77
2022/09/15 06:34:10;;;;;;;8.00;2.17;;;;;;;23.39;61.15;97667.19;4479361;31;20076;-78
2022/09/15 06:36:36;;;;;;;6.62;2.33;;;;;;;23.84;59.69;97666.97;4494500;31;20734;-78
2022/09/15 06:39:02;;;;;;;7.75;2.10;;;;;;;24.05;58.82;97661.53;4493052;31;20121;-78
2022/09/15 06:41:30;;;;;;;7.62;2.22;;;;;;;23.89;58.92;97672.59;4495341;31;20425;-77
2022/09/15 06:43:56;;;;;;;6.85;2.25;;;;;;;23.78;59.44;97673.97;4480848;31;20079;-78
2022/09/15 06:46:24;;;;;;;7.03;2.00;;;;;;;23.80;59.37;97673.75;4479766;31;20215;-83
2022/09/15 06:48:50;;;;;;;8.23;1.85;;;;;;;23.97;58.57;97674.28;4495585;31;20092;-81
2022/09/15 06:51:18;;;;;;;5.97;2.10;;;;;;;23.95;58.32;97674.47;4494786;31;20096;-80
2022/09/15 06:53:43;;;;;;;8.82;1.90;;;;;;;23.91;58.85;97678.59;4481994;31;20344;-81
2022/09/15 06:56:11;;;;;;;7.10;2.30;;;;;;;23.66;60.15;97670.09;4495791;31;20119;-81
2022/09/15 06:58:38;;;;;;;6.75;2.30;;;;;;;23.84;59.95;97688.50;4494655;31;20472;-79
2022/09/15 07:01:11;;;;;;;8.68;2.40;;;;;;;23.94;60.42;97692.50;4481697;31;20131;-80
2022/09/15 07:03:38;;;;;;;7.87;2.12;;;;;;;23.88;60.67;97681.69;4500789;31;20083;-81
2022/09/15 07:06:04;;;;;;;9.30;2.22;;;;;;;24.07;60.00;97670.22;4496682;31;20097;-80
2022/09/15 07:08:30;;;;;;;6.95;2.28;;;;;;;24.11;59.71;97682.25;4495343;31;20096;-80
2022/09/15 07:10:55;;;;;;;8.50;2.12;;;;;;;24.01;60.18;97684.47;4481494;31;20114;-80
2022/09/15 07:13:22;;;;;;;6.70;2.12;;;;;;;23.92;60.54;97699.09;4482492;31;20081;-80
2022/09/15 07:15:55;;;;;;;6.50;2.35;;;;;;;23.77;61.53;97704.53;4488284;31;20477;-80
2022/09/15 07:18:22;;;;;;;8.48;2.53;;;;;;;23.77;61.89;97709.09;4481240;31;20443;-80
2022/09/15 07:20:48;;;;;;;7.50;2.80;;;;;;;23.72;62.83;97709.66;4487403;31;20107;-80
2022/09/15 07:23:13;;;;;;;9.48;3.10;;;;;;;24.16;61.44;97710.44;4487374;32;20387;-79
2022/09/15 07:25:42;;;;;;;10.18;2.80;;;;;;;23.97;62.19;97718.19;4487433;32;20089;-80
2022/09/15 07:28:09;;;;;;;8.95;2.75;;;;;;;23.75;62.99;97714.66;4487428;31;20093;-80
2022/09/15 07:30:34;;;;;;;9.50;2.73;;;;;;;23.59;63.78;97715.75;4487751;32;20384;-79
2022/09/15 07:33:00;;;;;;;6.62;2.90;;;;;;;23.45;64.09;97714.81;4487774;32;20111;-80
2022/09/15 07:35:25;;;;;;;11.07;3.10;;;;;;;23.22;64.35;97711.44;4486866;32;20100;-80
2022/09/15 07:37:51;;;;;;;7.70;2.75;;;;;;;24.03;61.91;97720.09;4486456;32;20101;-81
2022/09/15 07:40:17;;;;;;;9.82;3.45;;;;;;;23.96;62.15;97726.44;4485867;32;20122;-81
2022/09/15 07:42:43;;;;;;;7.72;2.20;;;;;;;24.18;61.70;97714.59;4487719;32;20444;-80
2022/09/15 07:45:10;;;;;;;6.18;2.15;;;;;;;23.97;59.68;97720.88;4487816;32;20096;-80
2022/09/15 07:47:35;;;;;;;7.20;2.33;;;;;;;23.94;59.79;97722.06;4473544;32;20123;-81
2022/09/15 07:50:01;;;;;;;9.45;2.37;;;;;;;24.21;59.09;97721.44;4487593;32;20394;-80
2022/09/15 07:52:26;;;;;;;8.63;1.92;;;;;;;24.09;59.12;97730.06;4473606;32;20427;-81
2022/09/15 07:54:52;;;;;;;6.00;2.00;;;;;;;24.34;57.76;97711.59;4487944;32;20139;-80
2022/09/15 07:57:17;;;;;;;6.10;1.70;;;;;;;24.05;57.98;97723.41;4487703;32;20089;-81
2022/09/15 07:59:42;;;;;;;8.20;2.05;;;;;;;23.85;58.23;97733.19;4473595;32;20088;-81
2022/09/15 08:02:15;;;;;;;9.75;2.10;;;;;;;24.17;57.36;97733.62;4486438;32;36521;-81
2022/09/15 08:04:41;;;;;;;9.70;2.70;;;;;;;24.38;56.34;97733.56;4473317;32;20104;-80
2022/09/15 08:07:06;;;;;;;8.07;2.10;;;;;;;24.61;55.90;97727.94;4487740;32;20329;-81
2022/09/15 08:09:32;;;;;;;9.45;1.77;;;;;;;24.73;56.07;97726.31;4487738;32;20148;-80
2022/09/15 08:11:57;;;;;;;5.15;1.70;;;;;;;24.58;56.07;97728.31;4487544;32;20409;-81
2022/09/15 08:14:22;;;;;;;7.15;1.75;;;;;;;25.08;55.56;97737.03;4487515;32;20131;-81
2022/09/15 08:16:48;;;;;;;6.80;1.80;;;;;;;24.83;55.75;97738.59;4487411;32;20352;-81
2022/09/15 08:19:13;;;;;;;5.37;1.50;;;;;;;24.82;56.04;97729.69;4487675;32;20084;-81
2022/09/15 08:21:39;;;;;;;5.57;1.62;;;;;;;25.00;54.97;97745.28;4487436;32;20095;-81
2022/09/15 08:24:05;;;;;;;6.97;1.90;;;;;;;24.96;54.50;97754.81;4487461;32;20088;-81
2022/09/15 08:26:30;;;;;;;6.45;1.75;;;;;;;25.40;53.46;97748.16;4487547;32;20463;-81
2022/09/15 08:28:59;;;;;;;6.68;2.15;;;;;;;25.11;54.07;97735.78;4487515;32;20088;-81
2022/09/15 08:31:24;;;;;;;5.62;1.87;;;;;;;24.93;54.88;97739.88;4487355;32;20089;-81
2022/09/15 08:33:52;;;;;;;4.25;1.55;;;;;;;25.51;53.61;97727.81;4487514;32;20428;-81
2022/09/15 08:36:17;;;;;;;6.97;1.77;;;;;;;25.62;53.17;97726.41;4473280;32;20725;-81
2022/09/15 08:38:44;;;;;;;8.10;1.80;;;;;;;25.47;52.77;97730.09;4473128;32;20088;-81
2022/09/15 08:41:42;;;;;;;5.25;1.50;;;;;;;24.64;54.88;97726.69;4473176;32;20106;-81
2022/09/15 08:44:22;;;;;;;5.75;1.40;;;;;;;25.25;52.68;97721.34;4481678;32;20115;-81
2022/09/15 08:46:48;;;;;;;5.57;1.40;;;;;;;25.01;53.54;97725.38;4487491;32;20112;-80
2022/09/15 08:49:23;;;;;;;6.78;1.55;;;;;;;25.28;51.86;97715.56;4487402;32;20083;-81
2022/09/15 08:51:50;;;;;;;4.90;1.48;;;;;;;25.85;50.87;97715.19;4473262;32;20076;-81
2022/09/15 08:54:20;;;;;;;5.35;1.55;;;;;;;26.07;49.74;97713.13;4473315;32;20162;-81
2022/09/15 08:56:47;;;;;;;5.80;1.48;;;;;;;25.62;50.64;97713.75;4473220;32;20120;-81
2022/09/15 08:59:14;;;;;;;4.47;1.53;;;;;;;26.19;49.26;97707.94;4473241;32;20118;-81
2022/09/15 09:01:47;;;;;;;5.12;1.42;;;;;;;26.38;47.42;97706.22;4486622;32;20164;-81
2022/09/15 09:04:18;;;;;;;4.45;1.35;;;;;;;26.59;47.46;97702.47;4487185;32;20107;-81
2022/09/15 09:07:11;;;;;;;7.00;1.27;;;;;;;26.44;47.93;97699.97;4487307;32;20580;-81
2022/09/15 09:09:37;;;;;;;3.97;1.15;;;;;;;26.22;47.44;97702.94;4473054;32;20410;-81
2022/09/15 09:12:19;;;;;;;3.87;1.10;;;;;;;26.07;47.03;97703.16;4487177;32;20103;-81
2022/09/15 09:15:14;;;;;;;6.75;1.30;;;;;;;26.00;46.67;97688.88;4487513;32;20091;-81
2022/09/15 09:18:25;;;;;;;4.75;1.48;;;;;;;26.29;46.23;97687.56;4422845;32;20137;-81
2022/09/15 09:21:11;;;;;;;4.93;1.30;;;;;;;26.31;46.01;97681.09;4362338;32;20121;-81
2022/09/15 09:23:49;;;;;;;5.43;1.40;;;;;;;26.68;44.87;97679.59;4362412;32;20158;-81
2022/09/15 09:26:15;;;;;;;3.50;1.10;;;;;;;26.74;44.55;97673.31;4362496;32;20098;-81
2022/09/15 09:29:00;;;;;;;4.47;1.25;;;;;;;26.87;44.32;97667.84;4349891;32;20218;-81
2022/09/15 09:31:27;;;;;;;5.97;1.10;;;;;;;26.67;44.20;97672.50;4362444;32;20161;-81
2022/09/15 09:34:01;;;;;;;4.15;1.08;;;;;;;26.47;43.52;97665.28;4362397;32;20099;-81
2022/09/15 09:36:26;;;;;;;3.87;0.98;;;;;;;26.32;44.05;97675.50;4362397;32;20138;-81
2022/09/15 09:38:52;;;;;;;4.10;0.93;;;;;;;26.33;44.59;97673.63;4362352;32;20121;-81
2022/09/15 09:41:24;;;;;;;5.12;1.20;;;;;;;26.83;42.90;97665.78;4361848;32;20111;-81
2022/09/15 09:43:51;;;;;;;3.70;1.10;;;;;;;26.96;42.69;97670.28;4362387;32;20102;-81
2022/09/15 09:46:18;;;;;;;5.00;1.42;;;;;;;27.36;42.04;97681.72;4362294;32;20557;-81
2022/09/15 09:49:01;;;;;;;5.37;1.47;;;;;;;27.38;41.74;97670.69;4362098;32;20837;-81
2022/09/15 09:51:37;;;;;;;5.80;1.20;;;;;;;27.30;41.92;97668.28;4362375;32;20232;-81
2022/09/15 09:54:16;;;;;;;3.97;1.27;;;;;;;27.27;42.34;97658.69;4367891;32;20567;-80
2022/09/15 09:56:43;;;;;;;5.07;1.40;;;;;;;27.43;42.38;97649.25;4457872;32;20124;-81
2022/09/15 09:59:54;;;;;;;6.03;1.60;;;;;;;27.65;42.07;97652.38;4472881;32;20180;-81
2022/09/15 10:02:27;;;;;;;4.40;1.25;;;;;;;27.87;41.46;97647.38;4483667;32;20088;-81
2022/09/15 10:05:01;;;;;;;5.50;1.20;;;;;;;27.44;42.41;97646.28;4486950;32;20137;-81
2022/09/15 10:07:27;;;;;;;3.53;1.25;;;;;;;27.86;42.10;97634.91;4486944;32;20089;-81
2022/09/15 10:09:55;;;;;;;4.85;1.23;;;;;;;27.96;42.35;97634.44;4472481;32;20159;-81
2022/09/15 10:12:31;;;;;;;14.52;2.10;;;;;;;28.37;41.43;97622.13;4472373;32;20119;-81
2022/09/15 10:15:00;;;;;;;8.75;1.50;;;;;;;28.02;41.32;97625.41;4485781;32;20548;-81
2022/09/15 10:17:37;;;;;;;3.33;1.10;;;;;;;28.16;41.71;97617.97;4472501;32;20443;-81
2022/09/15 10:20:05;;;;;;;6.12;1.25;;;;;;;28.17;40.95;97615.03;4472517;32;20482;-81
2022/09/15 10:22:38;;;;;;;4.80;1.20;;;;;;;28.02;41.13;97601.88;4486487;32;20080;-81
2022/09/15 10:25:19;;;;;;;3.35;1.30;;;;;;;28.27;40.11;97594.75;4472327;32;20391;-81
2022/09/15 10:28:24;;;;;;;4.75;1.30;;;;;;;28.26;39.90;97585.81;4486536;32;20422;-80
2022/09/15 10:31:04;;;;;;;6.78;1.20;;;;;;;28.56;39.12;97579.59;4486820;32;20088;-80
2022/09/15 10:33:38;;;;;;;4.05;1.20;;;;;;;29.16;38.68;97576.06;4486812;32;20084;-80
2022/09/15 10:36:15;;;;;;;3.55;1.20;;;;;;;29.40;38.03;97576.94;4472458;32;20080;-80
2022/09/15 10:38:47;;;;;;;4.03;1.20;;;;;;;29.15;38.88;97577.13;4486319;32;20111;-80
2022/09/15 10:41:30;;;;;;;3.62;1.10;;;;;;;28.98;38.26;97585.87;4472251;32;20127;-80
2022/09/15 10:44:21;;;;;;;5.15;1.42;;;;;;;29.16;38.22;97584.19;4472224;32;20439;-80
2022/09/15 10:47:12;;;;;;;6.82;1.20;;;;;;;28.63;39.31;97588.50;4486615;32;20094;-80
2022/09/15 10:50:24;;;;;;;2.62;1.02;;;;;;;28.93;39.35;97593.06;4486316;32;20156;-80
2022/09/15 10:52:53;;;;;;;3.45;1.20;;;;;;;29.25;38.11;97599.06;4486265;32;20108;-80
2022/09/15 10:55:40;;;;;;;5.53;1.40;;;;;;;29.30;38.56;97584.81;4472071;32;20140;-81
2022/09/15 10:58:18;;;;;;;8.13;1.35;;;;;;;29.18;39.28;97590.22;4486302;32;20504;-80
2022/09/15 11:01:00;;;;;;;4.75;1.37;;;;;;;29.61;37.88;97589.06;4486228;32;20104;-80
2022/09/15 11:03:57;;;;;;;6.35;1.35;;;;;;;29.65;38.24;97590.28;4472156;32;20266;-80
2022/09/15 11:06:30;;;;;;;3.95;1.17;;;;;;;29.78;38.13;97583.78;4486115;32;20105;-81
2022/09/15 11:09:05;;;;;;;4.22;1.23;;;;;;;30.09;37.62;97582.56;4471782;32;20680;-80
2022/09/15 11:12:15;;;;;;;4.57;1.30;;;;;;;30.27;37.45;97586.19;4485909;32;20101;-80
2022/09/15 11:14:40;;;;;;;;;;;;;;;30.03;37.89;97580.81;4472351;32;20160;-80
2022/09/15 11:17:33;;;;;;;6.90;1.40;;;;;;;29.92;38.41;97574.34;4485947;32;19986;-80
2022/09/15 11:20:34;;;;;;;4.72;1.50;;;;;;;29.84;38.41;97582.84;4471613;32;20084;-81
2022/09/15 11:23:12;;;;;;;4.60;1.40;;;;;;;29.59;38.59;97593.91;4474337;32;20107;-83
2022/09/15 11:25:42;;;;;;;5.25;1.50;;;;;;;29.67;38.59;97584.59;4487108;32;20088;-86
2022/09/15 11:28:14;;;;;;;6.10;1.52;;;;;;;29.47;38.83;97580.34;4487986;32;20107;-83
2022/09/15 11:31:00;;;;;;;6.50;1.50;;;;;;;29.26;39.62;97583.63;4487965;32;20081;-82
2022/09/15 11:33:38;;;;;;;8.35;1.73;;;;;;;29.20;39.95;97579.94;4473984;32;20244;-81
2022/09/15 11:36:10;;;;;;;6.55;1.87;;;;;;;29.04;40.94;97578.72;4473975;32;20155;-81
2022/09/15 11:39:00;;;;;;;7.00;1.87;;;;;;;29.05;40.99;97574.94;4487892;32;20160;-83
2022/09/15 11:41:39;;;;;;;6.20;2.00;;;;;;;28.81;42.39;97568.63;4473630;32;20081;-84
2022/09/15 11:44:27;;;;;;;8.68;2.10;;;;;;;28.25;44.90;97567.88;4473538;32;20122;-83
2022/09/15 11:46:58;;;;;;;8.60;2.03;;;;;;;28.53;44.58;97552.97;4473651;32;20254;-82
2022/09/15 11:49:28;;;;;;;10.38;2.30;;;;;;;28.50;44.99;97546.09;4473576;32;20433;-82
2022/09/15 11:52:37;;;;;;;8.88;2.15;;;;;;;27.94;47.46;97531.78;4487770;32;20076;-82
2022/09/15 11:55:37;;;;;;;7.28;2.00;;;;;;;28.23;47.02;97518.53;4478361;32;20395;-82